Terminal Aerodrome Forecast
Issued by NWS

Home | Current Version | Previous Version | Text Only | Print | Product List | Glossary On
Versions: 1 2 3 4 5 6 7 8 9 10 11 12 13 14 15
000
FTUS42 KMLB 241700
TAFTIX
TAF
KTIX 241736Z 2418/2518 06014KT P6SM SCT045
      TEMPO 2418/2422 BKN040
     FM250000 03008KT P6SM FEW045=

USA.gov is the U.S. government's official web portal to all federal, state and local government web resources and services.